sensor_id;sensor_type;location;lat;lon;timestamp;P1;durP1;ratioP1;P2;durP2;ratioP2
36547;SDS011;22551;52.206;4.856;2023-05-10T00:03:05;25.10;;;14.05;;
36547;SDS011;22551;52.206;4.856;2023-05-10T00:08:07;27.88;;;15.43;;
36547;SDS011;22551;52.206;4.856;2023-05-10T00:13:11;20.80;;;12.77;;
36547;SDS011;22551;52.206;4.856;2023-05-10T00:18:14;29.48;;;13.65;;
36547;SDS011;22551;52.206;4.856;2023-05-10T00:23:17;25.30;;;14.10;;
36547;SDS011;22551;52.206;4.856;2023-05-10T00:28:22;26.33;;;14.52;;
36547;SDS011;22551;52.206;4.856;2023-05-10T00:33:25;26.08;;;14.43;;
36547;SDS011;22551;52.206;4.856;2023-05-10T00:38:30;22.48;;;13.48;;
36547;SDS011;22551;52.206;4.856;2023-05-10T00:43:37;23.35;;;13.63;;
36547;SDS011;22551;52.206;4.856;2023-05-10T00:48:40;31.15;;;15.63;;
36547;SDS011;22551;52.206;4.856;2023-05-10T00:53:43;33.83;;;17.98;;
36547;SDS011;22551;52.206;4.856;2023-05-10T00:58:48;28.63;;;16.53;;
36547;SDS011;22551;52.206;4.856;2023-05-10T01:03:51;28.00;;;16.23;;
36547;SDS011;22551;52.206;4.856;2023-05-10T01:08:53;29.92;;;17.67;;
36547;SDS011;22551;52.206;4.856;2023-05-10T01:13:57;31.67;;;17.13;;
36547;SDS011;22551;52.206;4.856;2023-05-10T01:19:00;32.45;;;17.70;;
36547;SDS011;22551;52.206;4.856;2023-05-10T01:24:10;29.10;;;17.00;;
36547;SDS011;22551;52.206;4.856;2023-05-10T01:30:01;59.63;;;17.95;;
36547;SDS011;22551;52.206;4.856;2023-05-10T01:35:17;45.40;;;17.17;;
36547;SDS011;22551;52.206;4.856;2023-05-10T01:40:25;56.10;;;18.50;;
36547;SDS011;22551;52.206;4.856;2023-05-10T01:45:37;34.28;;;16.45;;
36547;SDS011;22551;52.206;4.856;2023-05-10T01:50:49;32.97;;;17.77;;
36547;SDS011;22551;52.206;4.856;2023-05-10T01:55:53;30.38;;;16.85;;
36547;SDS011;22551;52.206;4.856;2023-05-10T02:00:57;35.83;;;16.90;;
36547;SDS011;22551;52.206;4.856;2023-05-10T02:06:06;32.88;;;14.82;;
36547;SDS011;22551;52.206;4.856;2023-05-10T02:11:10;35.30;;;16.63;;
36547;SDS011;22551;52.206;4.856;2023-05-10T02:16:15;50.03;;;18.17;;
36547;SDS011;22551;52.206;4.856;2023-05-10T02:21:20;40.97;;;15.90;;
36547;SDS011;22551;52.206;4.856;2023-05-10T02:26:23;90.28;;;17.92;;
36547;SDS011;22551;52.206;4.856;2023-05-10T02:31:27;43.17;;;15.82;;
36547;SDS011;22551;52.206;4.856;2023-05-10T02:36:31;40.85;;;15.45;;
36547;SDS011;22551;52.206;4.856;2023-05-10T02:41:33;49.38;;;17.42;;
36547;SDS011;22551;52.206;4.856;2023-05-10T02:46:36;46.30;;;16.65;;
36547;SDS011;22551;52.206;4.856;2023-05-10T02:51:40;51.03;;;18.08;;
36547;SDS011;22551;52.206;4.856;2023-05-10T02:56:51;55.00;;;20.10;;
36547;SDS011;22551;52.206;4.856;2023-05-10T03:01:59;55.50;;;19.45;;
36547;SDS011;22551;52.206;4.856;2023-05-10T03:07:03;59.97;;;18.92;;
36547;SDS011;22551;52.206;4.856;2023-05-10T03:12:07;57.22;;;22.00;;
36547;SDS011;22551;52.206;4.856;2023-05-10T03:17:19;64.90;;;20.73;;
36547;SDS011;22551;52.206;4.856;2023-05-10T03:22:34;67.50;;;21.73;;
36547;SDS011;22551;52.206;4.856;2023-05-10T03:27:41;62.10;;;21.05;;
36547;SDS011;22551;52.206;4.856;2023-05-10T03:32:45;56.63;;;20.60;;
36547;SDS011;22551;52.206;4.856;2023-05-10T03:37:48;73.72;;;21.92;;
36547;SDS011;22551;52.206;4.856;2023-05-10T03:42:50;69.80;;;22.67;;
36547;SDS011;22551;52.206;4.856;2023-05-10T03:47:52;62.00;;;19.83;;
36547;SDS011;22551;52.206;4.856;2023-05-10T03:52:56;63.72;;;20.65;;
36547;SDS011;22551;52.206;4.856;2023-05-10T03:57:59;66.60;;;22.63;;
36547;SDS011;22551;52.206;4.856;2023-05-10T04:03:01;59.17;;;23.80;;
36547;SDS011;22551;52.206;4.856;2023-05-10T04:08:05;58.55;;;23.92;;
36547;SDS011;22551;52.206;4.856;2023-05-10T04:13:07;52.83;;;23.77;;
36547;SDS011;22551;52.206;4.856;2023-05-10T04:18:09;52.03;;;21.35;;
36547;SDS011;22551;52.206;4.856;2023-05-10T04:23:13;44.45;;;20.85;;
36547;SDS011;22551;52.206;4.856;2023-05-10T04:28:16;59.50;;;21.35;;
36547;SDS011;22551;52.206;4.856;2023-05-10T04:33:20;25.13;;;11.85;;
36547;SDS011;22551;52.206;4.856;2023-05-10T04:38:24;23.00;;;10.45;;
36547;SDS011;22551;52.206;4.856;2023-05-10T04:43:26;23.80;;;9.10;;
36547;SDS011;22551;52.206;4.856;2023-05-10T04:48:29;13.52;;;7.95;;
36547;SDS011;22551;52.206;4.856;2023-05-10T04:53:33;17.83;;;8.35;;
36547;SDS011;22551;52.206;4.856;2023-05-10T04:58:35;22.27;;;9.43;;
36547;SDS011;22551;52.206;4.856;2023-05-10T05:03:38;20.88;;;9.15;;
36547;SDS011;22551;52.206;4.856;2023-05-10T05:08:41;23.17;;;9.15;;
36547;SDS011;22551;52.206;4.856;2023-05-10T05:13:43;26.77;;;10.60;;
36547;SDS011;22551;52.206;4.856;2023-05-10T05:18:45;17.15;;;8.38;;
36547;SDS011;22551;52.206;4.856;2023-05-10T05:23:49;17.70;;;8.65;;
36547;SDS011;22551;52.206;4.856;2023-05-10T05:28:51;23.38;;;8.73;;
36547;SDS011;22551;52.206;4.856;2023-05-10T05:33:54;21.20;;;8.45;;
36547;SDS011;22551;52.206;4.856;2023-05-10T05:38:58;26.27;;;9.15;;
36547;SDS011;22551;52.206;4.856;2023-05-10T05:44:00;21.90;;;9.98;;
36547;SDS011;22551;52.206;4.856;2023-05-10T05:49:02;21.60;;;10.38;;
36547;SDS011;22551;52.206;4.856;2023-05-10T05:54:05;22.58;;;9.88;;
36547;SDS011;22551;52.206;4.856;2023-05-10T05:59:08;20.35;;;8.88;;
36547;SDS011;22551;52.206;4.856;2023-05-10T06:04:10;16.55;;;8.40;;
36547;SDS011;22551;52.206;4.856;2023-05-10T06:09:14;22.52;;;8.35;;
36547;SDS011;22551;52.206;4.856;2023-05-10T06:14:16;18.98;;;9.25;;
36547;SDS011;22551;52.206;4.856;2023-05-10T06:19:18;17.10;;;8.13;;
36547;SDS011;22551;52.206;4.856;2023-05-10T06:24:21;18.27;;;8.80;;
36547;SDS011;22551;52.206;4.856;2023-05-10T06:29:24;18.00;;;7.90;;
36547;SDS011;22551;52.206;4.856;2023-05-10T06:34:26;14.65;;;8.10;;
36547;SDS011;22551;52.206;4.856;2023-05-10T06:39:29;20.55;;;7.47;;
36547;SDS011;22551;52.206;4.856;2023-05-10T06:44:31;15.50;;;7.18;;
36547;SDS011;22551;52.206;4.856;2023-05-10T06:49:34;15.88;;;7.47;;
36547;SDS011;22551;52.206;4.856;2023-05-10T06:54:38;15.10;;;7.45;;
36547;SDS011;22551;52.206;4.856;2023-05-10T06:59:40;17.85;;;7.30;;
36547;SDS011;22551;52.206;4.856;2023-05-10T07:04:43;15.50;;;7.38;;
36547;SDS011;22551;52.206;4.856;2023-05-10T07:09:46;14.63;;;6.95;;
36547;SDS011;22551;52.206;4.856;2023-05-10T07:14:49;11.95;;;6.88;;
36547;SDS011;22551;52.206;4.856;2023-05-10T07:19:52;12.43;;;6.72;;
36547;SDS011;22551;52.206;4.856;2023-05-10T07:24:55;15.95;;;7.00;;
36547;SDS011;22551;52.206;4.856;2023-05-10T07:29:58;11.30;;;5.82;;
36547;SDS011;22551;52.206;4.856;2023-05-10T07:35:00;10.48;;;4.90;;
36547;SDS011;22551;52.206;4.856;2023-05-10T07:40:05;9.93;;;4.80;;
36547;SDS011;22551;52.206;4.856;2023-05-10T07:45:09;13.27;;;4.65;;
36547;SDS011;22551;52.206;4.856;2023-05-10T07:50:12;9.13;;;5.03;;
36547;SDS011;22551;52.206;4.856;2023-05-10T07:55:15;10.30;;;4.68;;
36547;SDS011;22551;52.206;4.856;2023-05-10T08:00:19;7.30;;;3.90;;
36547;SDS011;22551;52.206;4.856;2023-05-10T08:05:22;7.82;;;3.88;;
36547;SDS011;22551;52.206;4.856;2023-05-10T08:10:25;7.10;;;4.03;;
36547;SDS011;22551;52.206;4.856;2023-05-10T08:15:27;7.75;;;3.75;;
36547;SDS011;22551;52.206;4.856;2023-05-10T08:20:30;6.90;;;3.55;;
36547;SDS011;22551;52.206;4.856;2023-05-10T08:25:33;6.95;;;3.50;;
36547;SDS011;22551;52.206;4.856;2023-05-10T08:30:35;8.65;;;3.97;;
36547;SDS011;22551;52.206;4.856;2023-05-10T08:35:38;5.57;;;3.13;;
36547;SDS011;22551;52.206;4.856;2023-05-10T08:40:43;8.52;;;3.95;;
36547;SDS011;22551;52.206;4.856;2023-05-10T08:50:47;6.03;;;3.20;;
36547;SDS011;22551;52.206;4.856;2023-05-10T08:55:54;4.95;;;3.30;;
36547;SDS011;22551;52.206;4.856;2023-05-10T09:00:57;5.43;;;3.28;;
36547;SDS011;22551;52.206;4.856;2023-05-10T09:06:00;7.97;;;3.47;;
36547;SDS011;22551;52.206;4.856;2023-05-10T09:11:06;7.10;;;3.78;;
36547;SDS011;22551;52.206;4.856;2023-05-10T09:16:10;6.13;;;3.13;;
36547;SDS011;22551;52.206;4.856;2023-05-10T09:21:12;9.90;;;4.07;;
36547;SDS011;22551;52.206;4.856;2023-05-10T09:26:16;8.10;;;4.03;;
36547;SDS011;22551;52.206;4.856;2023-05-10T09:31:42;7.63;;;3.47;;
36547;SDS011;22551;52.206;4.856;2023-05-10T09:36:53;7.90;;;4.13;;
36547;SDS011;22551;52.206;4.856;2023-05-10T09:41:59;8.65;;;3.55;;
36547;SDS011;22551;52.206;4.856;2023-05-10T09:47:04;8.93;;;3.83;;
36547;SDS011;22551;52.206;4.856;2023-05-10T09:52:07;11.38;;;4.28;;
36547;SDS011;22551;52.206;4.856;2023-05-10T09:57:13;7.90;;;3.28;;
36547;SDS011;22551;52.206;4.856;2023-05-10T10:02:22;6.18;;;2.63;;
36547;SDS011;22551;52.206;4.856;2023-05-10T10:07:30;5.93;;;2.60;;
36547;SDS011;22551;52.206;4.856;2023-05-10T10:12:34;7.22;;;3.03;;
36547;SDS011;22551;52.206;4.856;2023-05-10T10:17:36;10.37;;;4.30;;
36547;SDS011;22551;52.206;4.856;2023-05-10T10:22:39;8.27;;;3.63;;
36547;SDS011;22551;52.206;4.856;2023-05-10T10:27:49;6.43;;;3.40;;
36547;SDS011;22551;52.206;4.856;2023-05-10T10:33:18;7.40;;;3.67;;
36547;SDS011;22551;52.206;4.856;2023-05-10T10:49:28;8.95;;;3.67;;
36547;SDS011;22551;52.206;4.856;2023-05-10T10:54:33;5.50;;;2.30;;
36547;SDS011;22551;52.206;4.856;2023-05-10T10:59:42;2.90;;;2.00;;
36547;SDS011;22551;52.206;4.856;2023-05-10T11:04:45;7.20;;;2.83;;
36547;SDS011;22551;52.206;4.856;2023-05-10T11:09:47;5.03;;;2.33;;
36547;SDS011;22551;52.206;4.856;2023-05-10T11:14:51;4.53;;;2.20;;
36547;SDS011;22551;52.206;4.856;2023-05-10T11:25:15;3.63;;;2.25;;
36547;SDS011;22551;52.206;4.856;2023-05-10T11:30:19;8.45;;;4.45;;
36547;SDS011;22551;52.206;4.856;2023-05-10T11:35:22;16.00;;;6.95;;
36547;SDS011;22551;52.206;4.856;2023-05-10T11:40:24;11.88;;;5.63;;
36547;SDS011;22551;52.206;4.856;2023-05-10T11:45:28;14.48;;;6.88;;
36547;SDS011;22551;52.206;4.856;2023-05-10T11:50:31;10.60;;;5.63;;
36547;SDS011;22551;52.206;4.856;2023-05-10T11:55:34;18.67;;;8.85;;
36547;SDS011;22551;52.206;4.856;2023-05-10T12:00:37;23.45;;;8.48;;
36547;SDS011;22551;52.206;4.856;2023-05-10T12:05:40;18.10;;;8.15;;
36547;SDS011;22551;52.206;4.856;2023-05-10T12:10:45;18.38;;;8.65;;
36547;SDS011;22551;52.206;4.856;2023-05-10T12:15:49;19.77;;;8.73;;
36547;SDS011;22551;52.206;4.856;2023-05-10T12:20:52;19.27;;;8.30;;
36547;SDS011;22551;52.206;4.856;2023-05-10T12:26:01;15.70;;;8.23;;
36547;SDS011;22551;52.206;4.856;2023-05-10T12:31:06;13.95;;;7.28;;
36547;SDS011;22551;52.206;4.856;2023-05-10T12:36:09;14.65;;;6.57;;
36547;SDS011;22551;52.206;4.856;2023-05-10T12:41:12;10.88;;;5.07;;
36547;SDS011;22551;52.206;4.856;2023-05-10T12:46:18;9.65;;;4.57;;
36547;SDS011;22551;52.206;4.856;2023-05-10T12:51:20;9.85;;;3.97;;
36547;SDS011;22551;52.206;4.856;2023-05-10T12:56:22;10.32;;;4.07;;
36547;SDS011;22551;52.206;4.856;2023-05-10T13:01:26;13.50;;;4.97;;
36547;SDS011;22551;52.206;4.856;2023-05-10T13:06:29;10.80;;;4.43;;
36547;SDS011;22551;52.206;4.856;2023-05-10T13:11:32;9.60;;;5.15;;
36547;SDS011;22551;52.206;4.856;2023-05-10T13:16:38;9.13;;;5.50;;
36547;SDS011;22551;52.206;4.856;2023-05-10T13:21:43;12.82;;;5.50;;
36547;SDS011;22551;52.206;4.856;2023-05-10T13:26:46;9.13;;;5.63;;
36547;SDS011;22551;52.206;4.856;2023-05-10T13:31:49;12.57;;;5.32;;
36547;SDS011;22551;52.206;4.856;2023-05-10T13:36:52;9.32;;;4.93;;
36547;SDS011;22551;52.206;4.856;2023-05-10T13:41:56;9.43;;;4.78;;
36547;SDS011;22551;52.206;4.856;2023-05-10T13:46:59;12.50;;;5.07;;
36547;SDS011;22551;52.206;4.856;2023-05-10T13:52:01;8.23;;;4.30;;
36547;SDS011;22551;52.206;4.856;2023-05-10T13:57:07;8.75;;;4.25;;
36547;SDS011;22551;52.206;4.856;2023-05-10T14:02:10;6.13;;;3.33;;
36547;SDS011;22551;52.206;4.856;2023-05-10T14:07:13;11.07;;;3.70;;
36547;SDS011;22551;52.206;4.856;2023-05-10T14:12:15;8.90;;;3.92;;
36547;SDS011;22551;52.206;4.856;2023-05-10T14:17:18;6.55;;;2.83;;
36547;SDS011;22551;52.206;4.856;2023-05-10T14:22:20;5.95;;;2.42;;
36547;SDS011;22551;52.206;4.856;2023-05-10T14:27:23;7.68;;;3.13;;
36547;SDS011;22551;52.206;4.856;2023-05-10T14:32:29;6.38;;;4.05;;
36547;SDS011;22551;52.206;4.856;2023-05-10T14:37:32;11.75;;;3.78;;
36547;SDS011;22551;52.206;4.856;2023-05-10T14:42:34;8.85;;;4.03;;
36547;SDS011;22551;52.206;4.856;2023-05-10T14:47:37;6.15;;;3.17;;
36547;SDS011;22551;52.206;4.856;2023-05-10T14:52:39;5.63;;;3.22;;
36547;SDS011;22551;52.206;4.856;2023-05-10T14:57:42;7.60;;;3.75;;
36547;SDS011;22551;52.206;4.856;2023-05-10T15:02:48;7.88;;;4.25;;
36547;SDS011;22551;52.206;4.856;2023-05-10T15:07:50;6.93;;;3.87;;
36547;SDS011;22551;52.206;4.856;2023-05-10T15:12:53;8.80;;;4.43;;
36547;SDS011;22551;52.206;4.856;2023-05-10T15:17:56;7.78;;;4.22;;
36547;SDS011;22551;52.206;4.856;2023-05-10T15:22:58;10.02;;;4.75;;
36547;SDS011;22551;52.206;4.856;2023-05-10T15:28:01;9.70;;;5.03;;
36547;SDS011;22551;52.206;4.856;2023-05-10T15:33:05;13.15;;;5.50;;
36547;SDS011;22551;52.206;4.856;2023-05-10T15:38:08;11.10;;;4.85;;
36547;SDS011;22551;52.206;4.856;2023-05-10T15:43:11;8.63;;;5.20;;
36547;SDS011;22551;52.206;4.856;2023-05-10T15:48:15;11.60;;;4.95;;
36547;SDS011;22551;52.206;4.856;2023-05-10T15:53:17;9.25;;;4.75;;
36547;SDS011;22551;52.206;4.856;2023-05-10T15:58:19;8.18;;;4.70;;
36547;SDS011;22551;52.206;4.856;2023-05-10T16:08:26;9.68;;;4.50;;
36547;SDS011;22551;52.206;4.856;2023-05-10T16:13:29;14.60;;;5.82;;
36547;SDS011;22551;52.206;4.856;2023-05-10T16:18:36;10.63;;;5.10;;
36547;SDS011;22551;52.206;4.856;2023-05-10T16:23:39;20.52;;;6.05;;
36547;SDS011;22551;52.206;4.856;2023-05-10T16:28:42;16.13;;;6.78;;
36547;SDS011;22551;52.206;4.856;2023-05-10T16:33:45;15.02;;;7.05;;
36547;SDS011;22551;52.206;4.856;2023-05-10T16:38:48;15.05;;;6.40;;
36547;SDS011;22551;52.206;4.856;2023-05-10T16:43:50;13.82;;;6.15;;
36547;SDS011;22551;52.206;4.856;2023-05-10T16:48:54;13.45;;;6.65;;
36547;SDS011;22551;52.206;4.856;2023-05-10T16:53:56;15.52;;;6.32;;
36547;SDS011;22551;52.206;4.856;2023-05-10T16:58:58;16.40;;;6.65;;
36547;SDS011;22551;52.206;4.856;2023-05-10T17:04:02;15.93;;;6.57;;
36547;SDS011;22551;52.206;4.856;2023-05-10T17:09:04;11.67;;;5.23;;
36547;SDS011;22551;52.206;4.856;2023-05-10T17:14:07;11.93;;;5.88;;
36547;SDS011;22551;52.206;4.856;2023-05-10T17:19:10;13.40;;;6.22;;
36547;SDS011;22551;52.206;4.856;2023-05-10T17:24:12;14.57;;;6.05;;
36547;SDS011;22551;52.206;4.856;2023-05-10T17:29:15;15.85;;;7.03;;
36547;SDS011;22551;52.206;4.856;2023-05-10T17:34:18;13.05;;;5.95;;
36547;SDS011;22551;52.206;4.856;2023-05-10T17:39:21;13.90;;;5.60;;
36547;SDS011;22551;52.206;4.856;2023-05-10T17:44:23;11.23;;;5.40;;
36547;SDS011;22551;52.206;4.856;2023-05-10T17:49:27;9.57;;;4.88;;
36547;SDS011;22551;52.206;4.856;2023-05-10T17:54:29;13.77;;;5.73;;
36547;SDS011;22551;52.206;4.856;2023-05-10T17:59:31;10.73;;;5.47;;
36547;SDS011;22551;52.206;4.856;2023-05-10T18:04:35;10.48;;;4.47;;
36547;SDS011;22551;52.206;4.856;2023-05-10T18:09:40;13.85;;;5.38;;
36547;SDS011;22551;52.206;4.856;2023-05-10T18:14:42;7.93;;;4.70;;
36547;SDS011;22551;52.206;4.856;2023-05-10T18:19:46;13.60;;;6.20;;
36547;SDS011;22551;52.206;4.856;2023-05-10T18:24:48;12.05;;;5.40;;
36547;SDS011;22551;52.206;4.856;2023-05-10T18:29:51;14.07;;;6.07;;
36547;SDS011;22551;52.206;4.856;2023-05-10T18:34:55;10.35;;;4.72;;
36547;SDS011;22551;52.206;4.856;2023-05-10T18:39:58;9.02;;;5.13;;
36547;SDS011;22551;52.206;4.856;2023-05-10T18:45:00;10.77;;;5.35;;
36547;SDS011;22551;52.206;4.856;2023-05-10T18:50:04;9.95;;;5.05;;
36547;SDS011;22551;52.206;4.856;2023-05-10T18:55:09;8.85;;;4.78;;
36547;SDS011;22551;52.206;4.856;2023-05-10T19:00:11;9.30;;;4.82;;
36547;SDS011;22551;52.206;4.856;2023-05-10T19:05:15;9.95;;;4.55;;
36547;SDS011;22551;52.206;4.856;2023-05-10T19:10:17;8.38;;;4.80;;
36547;SDS011;22551;52.206;4.856;2023-05-10T19:15:20;10.15;;;5.95;;
36547;SDS011;22551;52.206;4.856;2023-05-10T19:20:24;11.95;;;5.70;;
36547;SDS011;22551;52.206;4.856;2023-05-10T19:25:26;14.40;;;6.17;;
36547;SDS011;22551;52.206;4.856;2023-05-10T19:30:29;11.20;;;5.80;;
36547;SDS011;22551;52.206;4.856;2023-05-10T19:35:32;10.13;;;5.80;;
36547;SDS011;22551;52.206;4.856;2023-05-10T19:40:35;11.47;;;5.67;;
36547;SDS011;22551;52.206;4.856;2023-05-10T19:45:37;10.85;;;5.97;;
36547;SDS011;22551;52.206;4.856;2023-05-10T19:50:41;9.93;;;5.43;;
36547;SDS011;22551;52.206;4.856;2023-05-10T19:55:43;10.15;;;5.80;;
36547;SDS011;22551;52.206;4.856;2023-05-10T20:00:45;11.45;;;5.95;;
36547;SDS011;22551;52.206;4.856;2023-05-10T20:05:49;13.27;;;5.25;;
36547;SDS011;22551;52.206;4.856;2023-05-10T20:10:53;12.95;;;5.53;;
36547;SDS011;22551;52.206;4.856;2023-05-10T20:15:57;13.18;;;5.72;;
36547;SDS011;22551;52.206;4.856;2023-05-10T20:21:01;13.30;;;6.20;;
36547;SDS011;22551;52.206;4.856;2023-05-10T20:26:03;13.25;;;6.65;;
36547;SDS011;22551;52.206;4.856;2023-05-10T20:31:07;14.25;;;5.93;;
36547;SDS011;22551;52.206;4.856;2023-05-10T20:36:11;15.30;;;7.32;;
36547;SDS011;22551;52.206;4.856;2023-05-10T20:41:14;12.50;;;5.63;;
36547;SDS011;22551;52.206;4.856;2023-05-10T20:46:16;14.73;;;7.20;;
36547;SDS011;22551;52.206;4.856;2023-05-10T20:51:19;17.90;;;7.72;;
36547;SDS011;22551;52.206;4.856;2023-05-10T20:56:22;19.42;;;7.78;;
36547;SDS011;22551;52.206;4.856;2023-05-10T21:01:24;15.45;;;7.75;;
36547;SDS011;22551;52.206;4.856;2023-05-10T21:06:27;11.85;;;6.57;;
36547;SDS011;22551;52.206;4.856;2023-05-10T21:11:32;13.90;;;7.03;;
36547;SDS011;22551;52.206;4.856;2023-05-10T21:16:35;16.00;;;7.50;;
36547;SDS011;22551;52.206;4.856;2023-05-10T21:21:39;14.73;;;6.82;;
36547;SDS011;22551;52.206;4.856;2023-05-10T21:26:42;14.68;;;7.60;;
36547;SDS011;22551;52.206;4.856;2023-05-10T21:31:44;15.20;;;7.88;;
36547;SDS011;22551;52.206;4.856;2023-05-10T21:36:48;17.88;;;8.38;;
36547;SDS011;22551;52.206;4.856;2023-05-10T21:41:52;14.23;;;7.35;;
36547;SDS011;22551;52.206;4.856;2023-05-10T21:46:54;14.05;;;7.13;;
36547;SDS011;22551;52.206;4.856;2023-05-10T21:51:58;14.88;;;7.38;;
36547;SDS011;22551;52.206;4.856;2023-05-10T21:57:00;16.17;;;8.47;;
36547;SDS011;22551;52.206;4.856;2023-05-10T22:02:02;14.48;;;7.80;;
36547;SDS011;22551;52.206;4.856;2023-05-10T22:07:06;15.93;;;7.20;;
36547;SDS011;22551;52.206;4.856;2023-05-10T22:12:08;14.38;;;7.95;;
36547;SDS011;22551;52.206;4.856;2023-05-10T22:17:11;19.50;;;8.38;;
36547;SDS011;22551;52.206;4.856;2023-05-10T22:22:14;20.38;;;9.15;;
36547;SDS011;22551;52.206;4.856;2023-05-10T22:27:17;17.55;;;8.38;;
36547;SDS011;22551;52.206;4.856;2023-05-10T22:32:19;15.57;;;7.75;;
36547;SDS011;22551;52.206;4.856;2023-05-10T22:37:22;16.67;;;7.90;;
36547;SDS011;22551;52.206;4.856;2023-05-10T22:42:25;17.92;;;7.90;;
36547;SDS011;22551;52.206;4.856;2023-05-10T22:47:27;21.90;;;9.00;;
36547;SDS011;22551;52.206;4.856;2023-05-10T22:52:31;16.25;;;7.95;;
36547;SDS011;22551;52.206;4.856;2023-05-10T22:57:33;18.35;;;8.80;;
36547;SDS011;22551;52.206;4.856;2023-05-10T23:02:35;15.23;;;7.72;;
36547;SDS011;22551;52.206;4.856;2023-05-10T23:07:39;17.05;;;7.85;;
36547;SDS011;22551;52.206;4.856;2023-05-10T23:12:41;18.25;;;8.40;;
36547;SDS011;22551;52.206;4.856;2023-05-10T23:17:43;16.95;;;8.02;;
36547;SDS011;22551;52.206;4.856;2023-05-10T23:22:47;11.88;;;6.60;;
36547;SDS011;22551;52.206;4.856;2023-05-10T23:27:49;14.55;;;7.90;;
36547;SDS011;22551;52.206;4.856;2023-05-10T23:32:51;11.10;;;6.35;;
36547;SDS011;22551;52.206;4.856;2023-05-10T23:37:54;15.48;;;7.88;;
36547;SDS011;22551;52.206;4.856;2023-05-10T23:42:57;16.35;;;7.93;;
36547;SDS011;22551;52.206;4.856;2023-05-10T23:47:59;12.68;;;7.03;;
36547;SDS011;22551;52.206;4.856;2023-05-10T23:53:02;16.98;;;7.80;;
36547;SDS011;22551;52.206;4.856;2023-05-10T23:58:05;13.57;;;7.88;;
